Main page
METAR-TAF:

METAR-TAF

Airports :

Bouaké Airport

Bouaké, Ivory coast

latitude: 07-44N, longitude: 005-04W, elevation: 376 m

Current weather observation

The report was made 27 minutes ago, at 10:00 UTC
Wind 8 kt from the Southwest
Temperature 27°C
Humidity 84%
Pressure 1013 hPa
Visibility 10 km or more
Broken clouds at a height of 1300 ft

METAR: DIBK 131000Z 22008KT 9999 BKN013 27/24 Q1013 NOSIG

Time: 10:27 (10:27 UTC)

Forecast

The report was made 10 hours and 38 minutes ago, at 23:49 UTC
Forecast valid from 13 at 00 UTC to 13 at 24 UTC
Wind 8 kt from the South
Visibility: 8000 m
Probability 30% :
Temporary
from 13 at 05 UTC to 13 at 08 UTC
Visibility: 4000 m
mist
Probability 30% :
Temporary
from 13 at 18 UTC to 13 at 23 UTC
Broken clouds at a height of 1300 ft
Few clouds at a height of 2500 ft, Cumulonimbus.

TAF: DIBK 122349Z 1300/1324 18008KT 8000 NSC PROB30 TEMPO 1305/1308 4000 BR PROB30 TEMPO 1318/1323 BKN013 FEW025CB

Weather observations and forecasts of more than 4000 airports (METAR and TAF reports).

The available stations are represented by yellow and red dots on the map.

Hover mouse over dot to see the name of the station.

Then click to see weather observations and forecasts.

To change the map : click on the green buttons with a black cross to zoom in, on the green button with a dash to zoom out, or on the green arrows for adjacent maps.


METAR-TAF: